This is the latest recevied weather packets stored in our database for station/object SP9MUF-14. If no packets are shown the sender has not sent any weather packets the latest 10 day(s).
| Time | Temp. | Humidity | Pressure | Rain* | Wind** | Luminosity | Snow |
|---|---|---|---|---|---|---|---|
| 1778131177 | 16.67° C | 63% | 1008 hPa | 0 mm | - | 73 W/m² | - |
| 1778130874 | 15.56° C | 63% | 1008 hPa | 0 mm | - | 68 W/m² | - |
| 1778130570 | 15.56° C | 64% | 1008 hPa | 0 mm | - | 65 W/m² | - |
| 1778130266 | 15.56° C | 63% | 1007.9 hPa | 0 mm | - | 64 W/m² | - |
| 1778129962 | 15.56° C | 63% | 1008 hPa | 0 mm | - | 63 W/m² | - |
| 1778129658 | 15.56° C | 63% | 1007.9 hPa | 0 mm | - | 62 W/m² | - |
| 1778129354 | 15° C | 65% | 1008 hPa | 0 mm | - | 60 W/m² | - |
| 1778129050 | 15° C | 69% | 1008 hPa | 0 mm | - | 52 W/m² | - |
| 1778128442 | 13.89° C | 73% | 1008.2 hPa | 0 mm | - | 47 W/m² | - |
| 1778128138 | 13.89° C | 74% | 1008.1 hPa | 0 mm | - | 43 W/m² | - |
| 1778127834 | 13.89° C | 73% | 1008 hPa | 0 mm | - | 40 W/m² | - |
| 1778127226 | 15° C | 71% | 1007.7 hPa | 0 mm | - | 35 W/m² | - |
| 1778126923 | 15° C | 69% | 1008.1 hPa | 0 mm | - | 31 W/m² | - |
| 1778126618 | 13.89° C | 69% | 1007.6 hPa | 0 mm | - | 30 W/m² | - |
| 1778126314 | 13.89° C | 70% | 1007.7 hPa | 0 mm | - | 24 W/m² | - |
| 1778126010 | 13.89° C | 70% | 1007.7 hPa | 0 mm | - | 19 W/m² | - |
| 1778125706 | 13.89° C | 70% | 1007.8 hPa | 0 mm | - | 15 W/m² | - |
| 1778125099 | 15° C | 68% | 1007.8 hPa | 0 mm | - | 10 W/m² | - |
| 1778124795 | 15° C | 66% | 1007.7 hPa | 0 mm | - | 7 W/m² | - |
| 1778124491 | 15.56° C | 63% | 1007.4 hPa | 0 mm | - | 6 W/m² | - |
| 1778124187 | 15.56° C | 61% | 1007.2 hPa | 0 mm | - | 4 W/m² | - |
| 1778123883 | 15.56° C | 62% | 1007.3 hPa | 0 mm | - | 3 W/m² | - |
| 1778123580 | 15.56° C | 61% | 1007.4 hPa | 0 mm | - | 2 W/m² | - |
| 1778123275 | 15.56° C | 60% | 1007.2 hPa | 0 mm | - | 1 W/m² | - |
| 1778122972 | 15.56° C | 60% | 1007.2 hPa | 0 mm | - | 1 W/m² | - |
* Rain latest hour (hover to see other rain measurements)
** Current wind speed in m/s (hover to see current wind gust speed)